Time;durP1;ratioP1;P1;durP2;ratioP2;P2;SDS_P1;SDS_P2;PMS_P1;PMS_P2;Temp;Humidity;BMP_temperature;BMP_pressure;BME280_temperature;BME280_humidity;BME280_pressure;Samples;Min_cycle;Max_cycle;Signal;HPM_P1;HPM_P2
2021/07/24 00:00:19;;;;;;;14.20;9.20;;;;;;;18.02;100.00;95392.22;1014994;29;20056;-71
2021/07/24 00:00:50;;;;;;;15.30;9.10;;;;;;;18.00;100.00;95387.19;1017131;29;20095;-72
2021/07/24 00:01:20;;;;;;;14.85;9.30;;;;;;;18.00;100.00;95389.09;1016116;29;20028;-72
2021/07/24 00:01:54;;;;;;;12.02;8.32;;;;;;;18.01;100.00;95380.03;1022327;29;20015;-71
2021/07/24 00:02:24;;;;;;;13.43;9.02;;;;;;;18.01;100.00;95380.81;1015014;29;20784;-71
2021/07/24 00:02:54;;;;;;;14.80;8.65;;;;;;;18.01;100.00;95388.78;1010962;29;20028;-72
2021/07/24 00:03:26;;;;;;;13.25;8.98;;;;;;;17.99;100.00;95388.31;1015765;29;20087;-71
2021/07/24 00:03:57;;;;;;;18.17;9.18;;;;;;;17.96;100.00;95388.94;1022992;28;20366;-72
2021/07/24 00:04:27;;;;;;;13.35;9.15;;;;;;;17.97;100.00;95382.53;1027202;28;20026;-71
2021/07/24 00:04:58;;;;;;;12.55;8.50;;;;;;;17.88;100.00;95371.94;1032576;28;20019;-72
2021/07/24 00:05:28;;;;;;;11.98;8.02;;;;;;;17.94;100.00;95385.03;1030964;28;20014;-72
2021/07/24 00:05:58;;;;;;;10.98;7.78;;;;;;;17.87;100.00;95381.03;1026749;28;20104;-72
2021/07/24 00:06:29;;;;;;;14.30;8.75;;;;;;;17.88;100.00;95382.56;1017933;29;20401;-72
2021/07/24 00:07:00;;;;;;;14.18;9.07;;;;;;;17.90;100.00;95379.59;1015059;29;20738;-71
2021/07/24 00:07:30;;;;;;;11.95;8.55;;;;;;;17.87;100.00;95385.53;1018980;28;20584;-71
2021/07/24 00:08:01;;;;;;;11.75;8.73;;;;;;;17.88;100.00;95377.25;1026853;28;20098;-72
2021/07/24 00:08:31;;;;;;;16.10;8.57;;;;;;;17.85;100.00;95377.13;1022492;28;20020;-68
2021/07/24 00:09:04;;;;;;;13.98;8.50;;;;;;;17.88;100.00;95381.81;1022894;28;20023;-71
2021/07/24 00:09:35;;;;;;;11.65;8.32;;;;;;;17.87;100.00;95381.03;1018868;29;20671;-72
2021/07/24 00:10:06;;;;;;;15.57;8.95;;;;;;;17.87;100.00;95382.88;1014778;29;20036;-71
2021/07/24 00:10:36;;;;;;;14.68;8.93;;;;;;;17.85;100.00;95377.13;1011471;29;20136;-71
2021/07/24 00:11:07;;;;;;;11.85;8.45;;;;;;;17.85;100.00;95383.22;1015588;29;20406;-71
2021/07/24 00:11:38;;;;;;;12.73;8.82;;;;;;;17.78;100.00;95367.00;1020703;28;20031;-72
2021/07/24 00:12:11;;;;;;;14.60;9.07;;;;;;;17.85;100.00;95377.91;1022303;28;20054;-72
2021/07/24 00:12:42;;;;;;;12.88;8.57;;;;;;;17.85;100.00;95380.56;1026891;28;20045;-71
2021/07/24 00:13:12;;;;;;;11.55;8.70;;;;;;;17.86;100.00;95373.34;1026784;28;20026;-67
2021/07/24 00:13:43;;;;;;;14.30;8.65;;;;;;;17.84;100.00;95375.53;1031365;28;20043;-69
2021/07/24 00:14:13;;;;;;;13.75;9.18;;;;;;;17.84;100.00;95375.53;1032029;28;20560;-71
2021/07/24 00:14:44;;;;;;;15.70;9.48;;;;;;;17.83;100.00;95379.31;1030923;28;20037;-70
2021/07/24 00:15:14;;;;;;;15.10;9.05;;;;;;;17.80;100.00;95379.94;1030749;28;20030;-71
2021/07/24 00:15:44;;;;;;;13.13;9.13;;;;;;;17.77;100.00;95367.28;1030526;28;20245;-71
2021/07/24 00:16:15;;;;;;;15.10;9.13;;;;;;;17.81;100.00;95382.28;1022783;29;20477;-69
2021/07/24 00:16:45;;;;;;;17.23;9.32;;;;;;;17.80;100.00;95379.94;1022583;29;20485;-69
2021/07/24 00:17:16;;;;;;;12.90;9.15;;;;;;;17.78;100.00;95377.59;1018973;29;20460;-69
2021/07/24 00:17:46;;;;;;;18.70;9.25;;;;;;;17.77;100.00;95380.56;1022866;28;20039;-68
2021/07/24 00:18:17;;;;;;;13.05;8.40;;;;;;;17.75;100.00;95380.09;1030820;28;20486;-72
2021/07/24 00:18:47;;;;;;;11.85;8.63;;;;;;;17.74;100.00;95381.97;1030545;28;20511;-71
2021/07/24 00:19:17;;;;;;;12.20;9.55;;;;;;;17.72;100.00;95378.06;1022731;29;20500;-71
2021/07/24 00:19:48;;;;;;;14.65;9.18;;;;;;;17.72;100.00;95378.06;1022837;28;20543;-71
2021/07/24 00:20:18;;;;;;;14.68;8.65;;;;;;;17.70;100.00;95381.03;1026591;28;20029;-71
2021/07/24 00:20:49;;;;;;;12.07;8.25;;;;;;;17.70;100.00;95378.38;1026739;28;20022;-71
2021/07/24 00:21:20;;;;;;;14.68;9.27;;;;;;;17.67;100.00;95379.81;1030877;28;20034;-71
2021/07/24 00:21:50;;;;;;;13.07;8.65;;;;;;;17.68;100.00;95377.91;1025818;28;20027;-71
2021/07/24 00:22:20;;;;;;;14.88;9.05;;;;;;;17.66;100.00;95375.56;1026723;28;20688;-71
2021/07/24 00:22:51;;;;;;;14.25;9.13;;;;;;;17.70;100.00;95372.28;1026760;28;20022;-71
2021/07/24 00:23:21;;;;;;;14.38;9.13;;;;;;;17.68;100.00;95372.63;1026848;28;20026;-71
2021/07/24 00:23:52;;;;;;;14.57;9.07;;;;;;;17.68;100.00;95377.91;1022407;28;20023;-71
2021/07/24 00:24:22;;;;;;;17.10;9.63;;;;;;;17.66;100.00;95369.50;1026700;28;20034;-72
2021/07/24 00:24:53;;;;;;;13.30;8.68;;;;;;;17.66;100.00;95375.56;1018816;29;20510;-71
2021/07/24 00:25:23;;;;;;;14.43;8.25;;;;;;;17.64;100.00;95367.16;1018582;28;20532;-72
2021/07/24 00:25:54;;;;;;;16.17;8.90;;;;;;;17.62;100.00;95369.34;1021863;29;20111;-71
2021/07/24 00:26:24;;;;;;;13.65;8.95;;;;;;;17.63;100.00;95365.59;1014975;29;20116;-71
2021/07/24 00:26:54;;;;;;;13.98;8.82;;;;;;;17.62;100.00;95364.03;1018459;29;20023;-71
2021/07/24 00:27:25;;;;;;;13.38;9.18;;;;;;;17.62;100.00;95358.72;1018926;29;20028;-71
2021/07/24 00:27:55;;;;;;;12.88;8.70;;;;;;;17.63;100.00;95362.94;1022700;28;20027;-72
2021/07/24 00:28:26;;;;;;;19.00;9.50;;;;;;;17.61;100.00;95362.50;1026734;28;20023;-71
2021/07/24 00:28:56;;;;;;;17.67;9.55;;;;;;;17.61;100.00;95364.38;1022642;28;20032;-71
2021/07/24 00:29:27;;;;;;;15.23;9.02;;;;;;;17.59;100.00;95359.34;1022597;29;20035;-71
2021/07/24 00:29:58;;;;;;;11.07;8.48;;;;;;;17.59;100.00;95354.06;1022838;28;20027;-71
2021/07/24 00:30:28;;;;;;;15.23;9.65;;;;;;;17.59;100.00;95359.34;1026616;28;20022;-71
2021/07/24 00:30:59;;;;;;;12.85;9.02;;;;;;;17.59;100.00;95353.28;1026872;28;20488;-71
2021/07/24 00:31:29;;;;;;;13.10;9.45;;;;;;;17.59;100.00;95356.72;1026661;28;20079;-72
2021/07/24 00:31:59;;;;;;;19.08;9.13;;;;;;;17.56;100.00;95344.06;1025756;28;20031;-72
2021/07/24 00:32:30;;;;;;;11.85;9.30;;;;;;;17.56;100.00;95349.38;1026729;28;20393;-71
2021/07/24 00:33:00;;;;;;;14.65;9.35;;;;;;;17.56;100.00;95351.25;1026710;28;20593;-70
2021/07/24 00:33:31;;;;;;;12.93;8.75;;;;;;;17.53;100.00;95344.69;1030029;28;20891;-72
2021/07/24 00:34:02;;;;;;;11.43;8.90;;;;;;;17.50;100.00;95347.97;1022362;28;20030;-71
2021/07/24 00:34:32;;;;;;;14.55;9.00;;;;;;;17.55;100.00;95347.81;1018664;29;20569;-72
2021/07/24 00:35:03;;;;;;;16.17;9.63;;;;;;;17.52;100.00;95343.16;1022913;29;20098;-72
2021/07/24 00:35:34;;;;;;;15.57;9.23;;;;;;;17.48;100.00;95341.44;1022981;28;20037;-71
2021/07/24 00:36:04;;;;;;;12.48;9.45;;;;;;;17.49;100.00;95343.78;1022619;28;20099;-72
2021/07/24 00:36:35;;;;;;;15.98;9.63;;;;;;;17.49;100.00;95346.44;1022775;28;20031;-71
2021/07/24 00:37:05;;;;;;;12.98;9.48;;;;;;;17.47;100.00;95338.03;1025841;28;20073;-72
2021/07/24 00:37:36;;;;;;;15.07;9.10;;;;;;;17.46;100.00;95340.97;1022685;28;20035;-71
2021/07/24 00:38:07;;;;;;;12.20;8.98;;;;;;;17.44;100.00;95339.44;1029715;28;20515;-72
2021/07/24 00:38:40;;;;;;;13.75;9.18;;;;;;;17.44;100.00;95338.66;1030665;28;20463;-71
2021/07/24 00:39:11;;;;;;;14.10;9.80;;;;;;;17.41;100.00;95333.97;1023109;28;20090;-71
2021/07/24 00:39:41;;;;;;;15.40;8.60;;;;;;;17.41;100.00;95342.72;1022533;29;20087;-71
2021/07/24 00:40:14;;;;;;;15.30;8.88;;;;;;;17.40;100.00;95340.34;1022993;29;20035;-71
2021/07/24 00:40:48;;;;;;;17.92;9.65;;;;;;;17.33;100.00;95329.47;1021155;28;20080;-71
2021/07/24 00:41:32;;;;;;;14.35;9.30;;;;;;;17.29;100.00;95323.22;1023732;28;20071;-71
2021/07/24 00:42:08;;;;;;;17.95;9.75;;;;;;;17.29;100.00;95325.88;1022051;29;20393;-71
2021/07/24 00:42:38;;;;;;;13.38;8.95;;;;;;;17.30;100.00;95322.91;1025797;28;20070;-71
2021/07/24 00:43:09;;;;;;;16.60;9.25;;;;;;;17.33;100.00;95324.16;1022130;29;20083;-72
2021/07/24 00:43:40;;;;;;;11.10;8.52;;;;;;;17.32;100.00;95327.91;1022539;29;20035;-72
2021/07/24 00:44:10;;;;;;;13.38;9.13;;;;;;;17.27;100.00;95322.75;1015628;29;20385;-72
2021/07/24 00:44:45;;;;;;;15.27;9.75;;;;;;;17.27;100.00;95325.41;1016012;29;20028;-72
2021/07/24 00:45:15;;;;;;;15.95;9.40;;;;;;;17.29;100.00;95333.84;1018687;29;20027;-71
2021/07/24 00:45:47;;;;;;;14.25;9.30;;;;;;;17.27;100.00;95330.72;1024750;28;20035;-71
2021/07/24 00:46:18;;;;;;;16.65;8.85;;;;;;;17.26;100.00;95329.16;1022573;29;20119;-72
2021/07/24 00:46:49;;;;;;;14.80;9.98;;;;;;;17.25;100.00;95330.25;1018645;29;20020;-71
2021/07/24 00:47:29;;;;;;;14.13;8.82;;;;;;;17.23;100.00;95327.91;1014864;29;20570;-71
2021/07/24 00:47:59;;;;;;;14.98;9.40;;;;;;;17.22;100.00;95331.66;1016311;29;20028;-72
2021/07/24 00:48:29;;;;;;;14.50;9.45;;;;;;;17.25;100.00;95338.22;1012137;29;20021;-71
2021/07/24 00:49:00;;;;;;;14.48;9.75;;;;;;;17.20;100.00;95326.69;1015988;29;20028;-72
2021/07/24 00:49:31;;;;;;;14.55;9.63;;;;;;;17.20;100.00;95326.69;1014644;29;20035;-71
2021/07/24 00:50:01;;;;;;;11.48;8.60;;;;;;;17.21;100.00;95327.47;1010631;29;20021;-71
2021/07/24 00:50:32;;;;;;;12.60;9.25;;;;;;;17.22;100.00;95330.88;1015113;29;20394;-71
2021/07/24 00:51:02;;;;;;;14.57;9.38;;;;;;;17.20;100.00;95328.53;1014548;29;20502;-72
2021/07/24 00:51:33;;;;;;;15.90;9.52;;;;;;;17.18;100.00;95323.56;1014968;29;20020;-72
2021/07/24 00:52:04;;;;;;;14.60;9.77;;;;;;;17.19;100.00;95325.09;1018378;29;20028;-71
2021/07/24 00:52:39;;;;;;;12.80;9.00;;;;;;;17.17;100.00;95327.31;1015041;29;20084;-71
2021/07/24 00:53:20;;;;;;;13.88;9.50;;;;;;;17.17;100.00;95327.31;1018888;29;20110;-72
2021/07/24 00:53:50;;;;;;;15.60;9.50;;;;;;;17.16;100.00;95320.44;1024773;28;20027;-70
2021/07/24 00:54:21;;;;;;;15.13;9.48;;;;;;;17.15;100.00;95326.84;1024606;28;20019;-70
2021/07/24 00:54:52;;;;;;;14.20;9.45;;;;;;;17.14;100.00;95316.56;1022645;29;20110;-71
2021/07/24 00:55:22;;;;;;;13.20;9.60;;;;;;;17.13;100.00;95321.06;1022703;29;20058;-72
2021/07/24 00:55:53;;;;;;;13.73;9.50;;;;;;;17.08;100.00;95318.59;1024117;28;20019;-71
2021/07/24 00:56:25;;;;;;;16.27;10.18;;;;;;;17.06;100.00;95312.81;1026445;28;20018;-72
2021/07/24 00:56:55;;;;;;;16.50;9.50;;;;;;;17.04;100.00;95309.72;1018525;29;20012;-71
2021/07/24 00:57:26;;;;;;;15.18;9.23;;;;;;;17.08;100.00;95318.59;1022484;28;20053;-72
2021/07/24 00:57:56;;;;;;;11.85;8.70;;;;;;;17.07;100.00;95322.34;1023019;28;20109;-71
2021/07/24 00:58:28;;;;;;;14.75;10.05;;;;;;;17.06;100.00;95320.75;1026879;28;20026;-71
2021/07/24 00:58:58;;;;;;;11.80;9.00;;;;;;;17.07;100.00;95325.00;1022833;29;20034;-72
2021/07/24 00:59:29;;;;;;;14.52;9.07;;;;;;;17.06;100.00;95322.63;1022437;29;20429;-72
2021/07/24 00:59:59;;;;;;;13.25;9.02;;;;;;;17.06;100.00;95322.63;1022538;28;20023;-71
2021/07/24 01:00:30;;;;;;;13.52;9.00;;;;;;;17.04;100.00;95322.19;1019054;28;20032;-71
2021/07/24 01:01:00;;;;;;;12.13;9.20;;;;;;;17.03;100.00;95324.03;1027313;28;20023;-72
2021/07/24 01:01:31;;;;;;;11.52;8.30;;;;;;;17.00;100.00;95322.03;1026460;28;20026;-71
2021/07/24 01:02:02;;;;;;;12.45;9.15;;;;;;;16.95;100.00;95315.00;1026127;28;20070;-71
2021/07/24 01:02:33;;;;;;;16.45;9.70;;;;;;;17.01;100.00;95323.59;1026528;28;20046;-71
2021/07/24 01:03:03;;;;;;;13.40;8.90;;;;;;;17.01;100.00;95328.88;1022831;29;20023;-71
2021/07/24 01:03:33;;;;;;;15.48;9.75;;;;;;;17.00;100.00;95327.34;1022539;28;20035;-71
2021/07/24 01:04:04;;;;;;;15.15;9.30;;;;;;;17.01;100.00;95320.94;1018966;29;20018;-72
2021/07/24 01:04:34;;;;;;;13.52;9.68;;;;;;;17.05;100.00;95324.50;1018462;29;20546;-72
2021/07/24 01:05:06;;;;;;;11.57;8.93;;;;;;;17.04;100.00;95322.19;1014793;29;20498;-72
2021/07/24 01:05:36;;;;;;;14.10;9.45;;;;;;;17.02;100.00;95313.75;1018688;29;20031;-72
2021/07/24 01:06:07;;;;;;;13.63;8.70;;;;;;;17.05;100.00;95321.88;1022858;28;20038;-71
2021/07/24 01:06:37;;;;;;;15.00;9.50;;;;;;;17.07;100.00;95321.53;1020570;28;20091;-71
2021/07/24 01:07:07;;;;;;;15.55;9.18;;;;;;;17.05;100.00;95318.44;1018776;29;20385;-71
2021/07/24 01:07:39;;;;;;;14.70;10.27;;;;;;;17.05;100.00;95313.91;1018572;29;20092;-71
2021/07/24 01:08:09;;;;;;;14.65;9.68;;;;;;;17.05;100.00;95319.22;1022502;28;20393;-71
2021/07/24 01:08:40;;;;;;;16.85;9.77;;;;;;;16.97;100.00;95304.09;1027003;28;20051;-71
2021/07/24 01:09:11;;;;;;;17.52;9.27;;;;;;;17.06;100.00;95312.81;1026708;28;20023;-72
2021/07/24 01:09:41;;;;;;;14.43;9.48;;;;;;;17.04;100.00;95317.66;1026654;28;20038;-71
2021/07/24 01:10:11;;;;;;;12.98;9.38;;;;;;;17.04;100.00;95317.66;1026295;28;20047;-72
2021/07/24 01:10:42;;;;;;;14.73;8.98;;;;;;;17.02;100.00;95322.47;1018980;29;20036;-72
2021/07/24 01:11:12;;;;;;;15.10;9.35;;;;;;;16.97;100.00;95312.06;1018838;29;20083;-71
2021/07/24 01:11:43;;;;;;;14.20;9.45;;;;;;;17.01;100.00;95312.22;1021629;29;20159;-72
2021/07/24 01:12:13;;;;;;;15.05;9.02;;;;;;;17.00;100.00;95322.03;1014916;29;20020;-72
2021/07/24 01:12:44;;;;;;;13.13;9.10;;;;;;;17.00;100.00;95321.22;1014892;29;20032;-71
2021/07/24 01:13:18;;;;;;;15.18;9.13;;;;;;;16.91;100.00;95314.09;1014577;29;20036;-71
2021/07/24 01:13:49;;;;;;;13.40;9.73;;;;;;;16.97;100.00;95317.34;1019580;28;20148;-72
2021/07/24 01:14:19;;;;;;;13.60;9.35;;;;;;;17.03;100.00;95320.59;1019089;29;20186;-72
2021/07/24 01:14:50;;;;;;;15.45;9.93;;;;;;;17.01;100.00;95323.59;1018793;29;20024;-71
2021/07/24 01:15:21;;;;;;;13.38;9.68;;;;;;;16.95;100.00;95316.88;1018630;29;20024;-71
2021/07/24 01:15:51;;;;;;;15.73;10.52;;;;;;;17.00;100.00;95321.22;1018411;29;20028;-71
2021/07/24 01:16:22;;;;;;;15.30;9.07;;;;;;;17.00;100.00;95324.69;1015209;29;20024;-71
2021/07/24 01:16:52;;;;;;;15.93;9.40;;;;;;;17.00;100.00;95327.34;1021053;29;20056;-72
2021/07/24 01:17:23;;;;;;;13.70;9.63;;;;;;;17.01;100.00;95323.59;1024248;28;20027;-72
2021/07/24 01:17:53;;;;;;;15.65;9.27;;;;;;;16.99;100.00;95323.09;1028828;28;20038;-72
2021/07/24 01:18:24;;;;;;;14.43;9.13;;;;;;;17.01;100.00;95320.94;1032942;28;20034;-71
2021/07/24 01:18:54;;;;;;;13.73;9.70;;;;;;;16.99;100.00;95320.47;1036356;28;20092;-71
2021/07/24 01:19:24;;;;;;;14.25;9.60;;;;;;;17.00;100.00;95315.94;1027453;28;20035;-71
2021/07/24 01:19:55;;;;;;;13.63;8.48;;;;;;;17.02;100.00;95317.19;1026726;28;20019;-70
2021/07/24 01:20:25;;;;;;;14.93;9.70;;;;;;;17.00;100.00;95316.72;1022703;28;20027;-71
2021/07/24 01:20:59;;;;;;;14.50;9.57;;;;;;;16.98;100.00;95310.97;1026394;28;20041;-72
2021/07/24 01:21:30;;;;;;;12.75;9.30;;;;;;;17.02;100.00;95314.53;1022904;29;20026;-71
2021/07/24 01:22:01;;;;;;;13.32;9.23;;;;;;;16.93;100.00;95303.16;1022024;29;20027;-71
2021/07/24 01:22:31;;;;;;;21.48;9.52;;;;;;;16.99;100.00;95311.72;1018374;29;20027;-71
2021/07/24 01:23:01;;;;;;;13.88;9.82;;;;;;;17.00;100.00;95315.94;1015197;29;20024;-72
2021/07/24 01:23:32;;;;;;;12.30;9.55;;;;;;;16.99;100.00;95314.38;1018526;29;20027;-71
2021/07/24 01:24:03;;;;;;;15.45;9.57;;;;;;;16.97;100.00;95320.00;1022806;28;20099;-71
2021/07/24 01:24:33;;;;;;;15.00;9.73;;;;;;;16.91;100.00;95308.00;1022078;29;20047;-72
2021/07/24 01:25:04;;;;;;;14.23;9.13;;;;;;;16.97;100.00;95314.72;1018902;29;20552;-71
2021/07/24 01:25:44;;;;;;;15.77;9.23;;;;;;;16.91;100.00;95305.34;1019031;29;20401;-71
2021/07/24 01:26:22;;;;;;;13.10;9.50;;;;;;;16.94;100.00;95310.03;1022376;28;20097;-70
2021/07/24 01:26:52;;;;;;;15.15;9.30;;;;;;;16.86;100.00;95305.50;1027502;28;20473;-70
2021/07/24 01:27:23;;;;;;;12.52;9.20;;;;;;;16.89;100.00;95310.94;1026851;28;20015;-70
2021/07/24 01:27:53;;;;;;;19.30;9.52;;;;;;;16.90;100.00;95309.88;1022288;29;20552;-70
2021/07/24 01:28:24;;;;;;;13.90;9.32;;;;;;;16.89;100.00;95304.88;1022880;29;20053;-70
2021/07/24 01:28:55;;;;;;;13.50;9.48;;;;;;;16.84;100.00;95297.09;1018576;29;20020;-69
2021/07/24 01:29:25;;;;;;;15.95;9.63;;;;;;;16.89;100.00;95304.88;1019038;28;20369;-70
2021/07/24 01:29:56;;;;;;;15.25;9.40;;;;;;;16.87;100.00;95313.16;1026808;28;20456;-70
2021/07/24 01:30:26;;;;;;;14.43;9.13;;;;;;;16.89;100.00;95304.88;1026350;28;20412;-69
2021/07/24 01:30:57;;;;;;;15.35;10.10;;;;;;;16.88;100.00;95305.97;1018300;29;20026;-71
2021/07/24 01:31:28;;;;;;;14.27;9.25;;;;;;;16.87;100.00;95302.56;1015140;29;20225;-70
2021/07/24 01:31:58;;;;;;;13.32;9.18;;;;;;;16.86;100.00;95305.50;1018007;29;20682;-70
2021/07/24 01:32:29;;;;;;;15.40;10.00;;;;;;;16.85;100.00;95306.59;1019286;28;20121;-70
2021/07/24 01:32:59;;;;;;;15.93;9.18;;;;;;;16.83;100.00;95298.16;1026189;28;20015;-70
2021/07/24 01:33:30;;;;;;;13.65;9.63;;;;;;;16.82;100.00;95299.28;1022585;29;20035;-70
2021/07/24 01:34:00;;;;;;;15.68;10.00;;;;;;;16.80;100.00;95296.16;1025988;28;20019;-69
2021/07/24 01:34:31;;;;;;;15.55;9.63;;;;;;;16.80;100.00;95296.16;1018607;29;20015;-69
2021/07/24 01:35:01;;;;;;;15.20;9.25;;;;;;;16.78;100.00;95303.66;1022953;28;20068;-70
2021/07/24 01:35:32;;;;;;;17.55;9.50;;;;;;;16.76;100.00;95300.50;1022478;29;20505;-70
2021/07/24 01:36:02;;;;;;;12.93;9.48;;;;;;;16.74;100.00;95295.50;1022455;28;20027;-69
2021/07/24 01:36:33;;;;;;;13.43;9.65;;;;;;;16.74;100.00;95298.16;1027082;28;20079;-70
2021/07/24 01:37:03;;;;;;;15.57;9.48;;;;;;;16.72;100.00;95300.34;1022503;28;20029;-70
2021/07/24 01:37:34;;;;;;;14.50;9.68;;;;;;;16.71;100.00;95296.13;1026662;28;20029;-70
2021/07/24 01:38:07;;;;;;;14.23;9.73;;;;;;;16.70;100.00;95297.22;1026586;28;20027;-70
2021/07/24 01:38:41;;;;;;;14.75;9.30;;;;;;;16.69;100.00;95298.31;1027644;28;20099;-70
2021/07/24 01:39:11;;;;;;;15.73;10.60;;;;;;;16.68;100.00;95299.41;1030650;28;20774;-70
2021/07/24 01:39:42;;;;;;;14.73;9.45;;;;;;;16.65;100.00;95290.19;1026503;28;20023;-69
2021/07/24 01:40:12;;;;;;;13.48;9.95;;;;;;;16.64;100.00;95296.59;1026679;28;20038;-69
2021/07/24 01:40:43;;;;;;;13.38;9.23;;;;;;;16.62;100.00;95290.81;1022815;29;20033;-70
2021/07/24 01:41:14;;;;;;;15.75;9.93;;;;;;;16.51;100.00;95284.28;1023147;28;20505;-70
2021/07/24 01:41:45;;;;;;;13.68;10.10;;;;;;;16.56;100.00;95289.41;1026127;28;20019;-70
2021/07/24 01:42:17;;;;;;;16.05;10.18;;;;;;;16.57;100.00;95287.56;1021475;29;20039;-69
2021/07/24 01:42:48;;;;;;;13.38;9.35;;;;;;;16.54;100.00;95288.97;1018664;29;20020;-70
2021/07/24 01:43:18;;;;;;;16.40;9.10;;;;;;;16.55;100.00;95293.16;1018820;29;20509;-70
2021/07/24 01:43:49;;;;;;;13.02;9.55;;;;;;;16.54;100.00;95291.63;1017673;28;20023;-67
2021/07/24 01:44:19;;;;;;;17.45;9.73;;;;;;;16.53;100.00;95292.69;1016177;29;20048;-70
2021/07/24 01:44:49;;;;;;;17.13;10.00;;;;;;;16.50;100.00;95296.75;1016188;29;20055;-69
2021/07/24 01:45:20;;;;;;;14.82;10.38;;;;;;;16.50;100.00;95296.75;1026193;28;20019;-70
2021/07/24 01:45:50;;;;;;;15.07;10.10;;;;;;;16.48;100.00;95290.19;1030437;28;20079;-69
2021/07/24 01:46:21;;;;;;;14.85;9.40;;;;;;;16.51;100.00;95297.53;1030113;28;20029;-69
2021/07/24 01:46:52;;;;;;;14.00;10.10;;;;;;;16.35;100.00;95285.81;1030422;28;20023;-69
2021/07/24 01:47:23;;;;;;;13.55;9.75;;;;;;;16.50;100.00;95301.28;1030170;28;20040;-70
2021/07/24 01:47:53;;;;;;;14.20;9.80;;;;;;;16.48;100.00;95292.84;1026670;28;20026;-70
2021/07/24 01:48:46;;;;;;;15.98;10.10;;;;;;;16.48;100.00;95295.50;1030196;28;20420;-69
2021/07/24 01:52:46;;;;;;;15.93;9.57;;;;;;;16.46;100.00;95297.66;1023220;28;20016;-71
2021/07/24 01:52:47;;;;;;;15.95;9.52;;;;;;;16.30;100.00;95283.31;1017770;29;20673;-70
2021/07/24 01:53:18;;;;;;;16.05;9.82;;;;;;;16.27;100.00;95284.72;1018273;29;20378;-70
2021/07/24 01:53:53;;;;;;;15.45;9.38;;;;;;;16.33;100.00;95295.94;1018214;29;20079;-69
2021/07/24 01:54:30;;;;;;;14.68;10.00;;;;;;;16.33;100.00;95299.38;1022659;29;20071;-70
2021/07/24 01:55:01;;;;;;;17.55;10.20;;;;;;;16.29;100.00;95297.66;1024139;28;20023;-70
2021/07/24 01:55:39;;;;;;;15.13;9.68;;;;;;;16.27;100.00;95298.75;1022263;29;20023;-71
2021/07/24 01:56:10;;;;;;;13.60;9.43;;;;;;;16.24;100.00;95294.06;1020315;29;20031;-69
2021/07/24 01:56:40;;;;;;;18.02;9.95;;;;;;;16.22;100.00;95301.53;1022332;29;20581;-70
2021/07/24 01:57:11;;;;;;;14.10;10.63;;;;;;;16.21;100.00;95297.34;1020720;28;20020;-69
2021/07/24 01:57:43;;;;;;;13.90;9.98;;;;;;;16.17;100.00;95304.34;1020741;29;20027;-71
2021/07/24 01:58:15;;;;;;;20.20;11.05;;;;;;;16.17;100.00;95301.69;1022113;28;20024;-70
2021/07/24 01:58:46;;;;;;;14.90;10.45;;;;;;;16.16;100.00;95299.34;1022422;29;20465;-69
2021/07/24 01:59:16;;;;;;;15.27;9.77;;;;;;;16.17;100.00;95301.69;1022193;29;20024;-69
2021/07/24 01:59:47;;;;;;;15.02;9.80;;;;;;;16.14;100.00;95302.31;1022444;28;20021;-70
2021/07/24 02:00:17;;;;;;;14.75;9.70;;;;;;;16.12;100.00;95293.09;1021630;29;20023;-70
2021/07/24 02:00:48;;;;;;;15.02;10.05;;;;;;;16.15;100.00;95293.25;1018409;29;20062;-69
2021/07/24 02:01:21;;;;;;;20.55;9.80;;;;;;;16.18;100.00;95292.66;1026557;28;20018;-70
2021/07/24 02:01:54;;;;;;;13.70;9.63;;;;;;;16.20;100.00;95298.44;1025082;28;20150;-70
2021/07/24 02:02:25;;;;;;;13.20;9.75;;;;;;;16.16;100.00;95289.56;1026664;28;20037;-70
2021/07/24 02:02:55;;;;;;;13.00;9.38;;;;;;;16.22;100.00;95303.41;1012145;29;20064;-70
2021/07/24 02:03:42;;;;;;;15.30;10.13;;;;;;;16.22;100.00;95303.41;1017387;28;20025;-70
2021/07/24 02:04:14;;;;;;;12.80;9.65;;;;;;;16.18;100.00;95297.94;1020807;29;20024;-70
2021/07/24 02:04:48;;;;;;;13.15;9.48;;;;;;;16.20;100.00;95295.78;1020714;29;20402;-70
2021/07/24 02:05:48;;;;;;;14.25;10.25;;;;;;;16.17;100.00;95307.00;1022800;29;20024;-69
2021/07/24 02:06:18;;;;;;;16.00;10.32;;;;;;;16.14;100.00;95302.31;1019279;28;20071;-70
2021/07/24 02:06:49;;;;;;;13.52;10.18;;;;;;;16.13;100.00;95311.34;1026462;28;20083;-69
2021/07/24 02:07:22;;;;;;;13.32;10.30;;;;;;;16.12;100.00;95304.47;1026599;28;20050;-69
2021/07/24 02:07:52;;;;;;;14.65;9.75;;;;;;;16.10;100.00;95303.25;1023135;28;20023;-71
2021/07/24 02:08:24;;;;;;;13.48;9.27;;;;;;;16.09;100.00;95299.78;1022139;29;20023;-70
2021/07/24 02:08:54;;;;;;;16.92;10.40;;;;;;;16.08;100.00;95303.53;1023063;28;20082;-70
2021/07/24 02:09:25;;;;;;;15.32;10.25;;;;;;;16.06;100.00;95302.28;1027237;28;20465;-70
2021/07/24 02:09:55;;;;;;;15.15;10.32;;;;;;;16.10;100.00;95303.25;1022998;28;20019;-70
2021/07/24 02:10:25;;;;;;;14.52;9.75;;;;;;;16.12;100.00;95304.47;1023613;29;20026;-70
2021/07/24 02:10:57;;;;;;;12.73;9.93;;;;;;;16.15;100.00;95303.09;1028003;28;20472;-69
2021/07/24 02:11:27;;;;;;;14.00;9.25;;;;;;;16.13;100.00;95292.81;1029504;28;20105;-71
2021/07/24 02:11:58;;;;;;;21.38;10.20;;;;;;;16.18;100.00;95303.25;1023293;29;20091;-70
2021/07/24 02:12:28;;;;;;;14.25;9.75;;;;;;;16.20;100.00;95300.31;1024087;29;20024;-71
2021/07/24 02:12:59;;;;;;;13.25;9.52;;;;;;;16.19;100.00;95298.72;1028056;28;20019;-72
2021/07/24 02:13:30;;;;;;;15.25;9.45;;;;;;;16.20;100.00;95305.59;1034121;28;20011;-74
2021/07/24 02:14:00;;;;;;;13.63;9.45;;;;;;;16.21;100.00;95302.63;1032196;28;20026;-71
2021/07/24 02:14:34;;;;;;;15.05;10.07;;;;;;;16.16;100.00;95294.03;1031901;28;20054;-72
2021/07/24 02:15:05;;;;;;;15.05;9.55;;;;;;;16.20;100.00;95310.88;1027476;28;20044;-71
2021/07/24 02:15:36;;;;;;;13.45;9.20;;;;;;;16.19;100.00;95304.78;1027839;29;20038;-71
2021/07/24 02:16:06;;;;;;;14.55;9.63;;;;;;;16.12;100.00;95299.16;1019316;29;20020;-73
2021/07/24 02:16:37;;;;;;;13.77;10.10;;;;;;;16.18;100.00;95303.25;1020938;29;20056;-70
2021/07/24 02:17:07;;;;;;;14.23;10.07;;;;;;;16.17;100.00;95308.84;1019535;29;20466;-71
2021/07/24 02:17:38;;;;;;;15.30;10.50;;;;;;;16.16;100.00;95304.63;1022296;29;20402;-71
2021/07/24 02:18:09;;;;;;;13.68;10.27;;;;;;;16.11;100.00;95302.16;1019594;29;20475;-70
2021/07/24 02:18:39;;;;;;;17.38;10.85;;;;;;;16.10;100.00;95300.59;1023200;28;20047;-70
2021/07/24 02:19:10;;;;;;;15.98;9.50;;;;;;;16.13;100.00;95311.34;1019378;29;20505;-70
2021/07/24 02:19:40;;;;;;;12.98;10.18;;;;;;;16.07;100.00;95301.97;1023452;29;20133;-70
2021/07/24 02:20:11;;;;;;;19.08;10.50;;;;;;;16.11;100.00;95307.44;1019458;29;20024;-70
2021/07/24 02:20:42;;;;;;;18.05;10.85;;;;;;;16.07;100.00;95317.84;1015462;29;20043;-70
2021/07/24 02:21:12;;;;;;;14.80;9.93;;;;;;;16.05;100.00;95316.59;1015237;29;20039;-69
2021/07/24 02:21:43;;;;;;;13.50;10.30;;;;;;;16.02;100.00;95318.00;1019093;28;20470;-70
2021/07/24 02:22:13;;;;;;;15.95;10.55;;;;;;;15.95;100.00;95307.06;1027001;28;20038;-70
2021/07/24 02:22:44;;;;;;;16.05;10.65;;;;;;;15.92;100.00;95315.63;1022927;29;20042;-70
2021/07/24 02:23:16;;;;;;;15.00;10.95;;;;;;;15.88;100.00;95315.47;1015696;29;20486;-70
2021/07/24 02:23:47;;;;;;;15.48;11.05;;;;;;;15.88;100.00;95319.97;1018903;29;20024;-70
2021/07/24 02:24:17;;;;;;;14.43;10.68;;;;;;;15.83;100.00;95318.25;1017887;29;20478;-70
2021/07/24 02:24:47;;;;;;;18.25;10.20;;;;;;;15.81;100.00;95320.41;1018819;29;20510;-70
2021/07/24 02:25:18;;;;;;;15.18;10.13;;;;;;;15.78;100.00;95324.44;1023041;28;20032;-70
2021/07/24 02:25:48;;;;;;;15.68;9.90;;;;;;;15.70;100.00;95319.13;1025291;28;20032;-70
2021/07/24 02:26:19;;;;;;;17.40;10.88;;;;;;;15.75;100.00;95327.69;1022922;29;20095;-70
2021/07/24 02:26:49;;;;;;;17.05;10.77;;;;;;;15.69;100.00;95326.28;1020599;29;20032;-70